createdAt,value
2023-01-29T00:00:10.450Z,87.78
2023-01-29T00:02:39.832Z,88.21
2023-01-29T00:05:26.109Z,88.50
2023-01-29T00:07:55.382Z,86.67
2023-01-29T00:10:24.291Z,86.96
2023-01-29T00:12:52.015Z,86.80
2023-01-29T00:15:20.695Z,86.59
2023-01-29T00:17:48.390Z,86.57
2023-01-29T00:20:16.652Z,86.81
2023-01-29T00:22:44.177Z,88.74
2023-01-29T00:25:12.349Z,89.18
2023-01-29T00:27:39.649Z,88.64
2023-01-29T00:30:13.222Z,88.96
2023-01-29T00:32:41.346Z,87.10
2023-01-29T00:35:09.711Z,87.60
2023-01-29T00:37:37.462Z,87.66
2023-01-29T00:40:05.895Z,87.80
2023-01-29T00:42:51.860Z,87.12
2023-01-29T00:45:19.491Z,85.83
2023-01-29T00:47:46.884Z,87.66
2023-01-29T00:50:14.599Z,86.79
2023-01-29T00:52:44.148Z,85.98
2023-01-29T00:55:12.564Z,85.93
2023-01-29T00:57:39.953Z,85.66
2023-01-29T01:00:10.894Z,87.24
2023-01-29T01:02:57.192Z,87.03
2023-01-29T01:05:27.256Z,86.87
2023-01-29T01:07:57.104Z,86.73
2023-01-29T01:10:29.136Z,87.50
2023-01-29T01:12:59.422Z,87.23
2023-01-29T01:15:30.907Z,88.03
2023-01-29T01:18:00.754Z,88.76
2023-01-29T01:20:31.362Z,89.26
2023-01-29T01:22:58.856Z,90.19
2023-01-29T01:25:27.308Z,89.38
2023-01-29T01:27:57.068Z,89.47
2023-01-29T01:30:25.529Z,88.53
2023-01-29T01:32:53.362Z,88.74
2023-01-29T01:35:21.229Z,90.81
2023-01-29T01:37:49.355Z,90.80
2023-01-29T01:40:22.900Z,92.57
2023-01-29T01:42:53.373Z,92.19
2023-01-29T01:45:41.084Z,93.36
2023-01-29T01:48:20.244Z,92.17
2023-01-29T01:50:59.042Z,93.15
2023-01-29T01:53:49.432Z,91.95
2023-01-29T01:56:23.004Z,91.85
2023-01-29T01:58:59.349Z,90.54
2023-01-29T02:01:31.090Z,90.62
2023-01-29T02:04:21.899Z,91.47
2023-01-29T02:07:09.965Z,90.78
2023-01-29T02:09:47.080Z,90.57
2023-01-29T02:12:17.188Z,92.47
2023-01-29T02:14:45.461Z,90.51
2023-01-29T02:17:16.119Z,91.12
2023-01-29T02:20:03.572Z,92.42
2023-01-29T02:22:55.451Z,91.86
2023-01-29T02:25:49.614Z,90.62
2023-01-29T02:28:25.821Z,89.67
2023-01-29T02:31:12.892Z,90.23
2023-01-29T02:34:10.918Z,90.52
2023-01-29T02:37:03.391Z,90.48
2023-01-29T02:39:59.877Z,89.86
2023-01-29T02:42:47.551Z,90.43
2023-01-29T02:45:47.441Z,90.09
2023-01-29T02:48:20.406Z,89.03
2023-01-29T02:50:51.151Z,89.43
2023-01-29T02:53:40.825Z,91.51
2023-01-29T02:56:41.825Z,90.09
2023-01-29T02:59:16.754Z,90.63
2023-01-29T03:01:53.842Z,90.34
2023-01-29T03:04:29.740Z,89.91
2023-01-29T03:07:05.698Z,89.49
2023-01-29T03:09:44.842Z,89.51
2023-01-29T03:12:35.330Z,90.29
2023-01-29T03:15:16.409Z,90.27
2023-01-29T03:17:53.997Z,89.37
2023-01-29T03:20:28.585Z,89.80
2023-01-29T03:23:06.029Z,89.67
2023-01-29T03:25:59.274Z,90.30
2023-01-29T03:28:49.039Z,89.46
2023-01-29T03:31:36.829Z,90.63
2023-01-29T03:34:16.688Z,90.70
2023-01-29T03:36:56.205Z,90.75
2023-01-29T03:39:30.200Z,88.80
2023-01-29T03:41:58.091Z,90.23
2023-01-29T03:44:40.951Z,91.40
2023-01-29T03:47:20.336Z,91.13
2023-01-29T03:50:02.234Z,91.87
2023-01-29T03:52:50.153Z,89.45
2023-01-29T03:55:24.831Z,89.58
2023-01-29T03:58:05.169Z,89.96
2023-01-29T04:00:45.318Z,89.47
2023-01-29T04:03:30.045Z,88.92
2023-01-29T04:06:10.039Z,88.74
2023-01-29T04:08:47.569Z,88.80
2023-01-29T04:11:18.990Z,89.05
2023-01-29T04:13:48.079Z,89.91
2023-01-29T04:16:23.090Z,90.01
2023-01-29T04:18:52.084Z,89.62
2023-01-29T04:21:22.197Z,88.56
2023-01-29T04:23:49.527Z,89.10
2023-01-29T04:26:52.411Z,89.65
2023-01-29T04:29:44.664Z,89.61
2023-01-29T04:32:32.327Z,88.97
2023-01-29T04:35:24.476Z,88.54
2023-01-29T04:38:12.046Z,88.28
2023-01-29T04:40:51.200Z,88.70
2023-01-29T04:43:27.178Z,90.04
2023-01-29T04:46:18.708Z,87.96
2023-01-29T04:49:05.436Z,89.88
2023-01-29T04:51:37.656Z,88.02
2023-01-29T04:54:14.448Z,87.87
2023-01-29T04:56:54.282Z,88.86
2023-01-29T04:59:29.662Z,89.95
2023-01-29T05:01:59.726Z,90.80
2023-01-29T05:04:29.237Z,88.72
2023-01-29T05:06:57.426Z,89.73
2023-01-29T05:09:26.424Z,90.07
2023-01-29T05:11:54.186Z,88.57
2023-01-29T05:14:25.886Z,88.34
2023-01-29T05:16:56.860Z,89.10
2023-01-29T05:19:24.517Z,90.33
2023-01-29T05:21:51.953Z,88.13
2023-01-29T05:24:24.535Z,88.26
2023-01-29T05:27:12.730Z,88.82
2023-01-29T05:29:45.260Z,88.25
2023-01-29T05:32:13.425Z,88.35
2023-01-29T05:34:41.189Z,87.16
2023-01-29T05:37:10.972Z,86.37
2023-01-29T05:39:38.316Z,87.52
2023-01-29T05:42:06.157Z,86.69
2023-01-29T05:44:33.694Z,87.23
2023-01-29T05:47:02.928Z,87.82
2023-01-29T05:49:30.528Z,86.43
2023-01-29T05:51:57.893Z,87.29
2023-01-29T05:54:25.346Z,85.66
2023-01-29T05:56:53.172Z,86.95
2023-01-29T05:59:20.738Z,86.66
2023-01-29T06:01:48.076Z,86.33
2023-01-29T06:04:15.745Z,87.49
2023-01-29T06:06:43.375Z,87.14
2023-01-29T06:09:12.084Z,87.42
2023-01-29T06:11:40.074Z,87.26
2023-01-29T06:14:08.386Z,88.25
2023-01-29T06:16:36.233Z,89.64
2023-01-29T06:19:04.451Z,88.64
2023-01-29T06:21:32.371Z,87.31
2023-01-29T06:23:59.916Z,87.32
2023-01-29T06:26:27.559Z,87.96
2023-01-29T06:28:55.078Z,88.21
2023-01-29T06:31:37.258Z,87.82
2023-01-29T06:34:07.662Z,89.13
2023-01-29T06:36:35.493Z,86.59
2023-01-29T06:39:04.192Z,88.14
2023-01-29T06:41:31.921Z,87.52
2023-01-29T06:43:59.296Z,87.22
2023-01-29T06:46:26.881Z,86.55
2023-01-29T06:48:57.573Z,86.59
2023-01-29T06:51:25.884Z,89.36
2023-01-29T06:53:54.780Z,86.91
2023-01-29T06:56:23.576Z,86.12
2023-01-29T06:58:51.407Z,88.47
2023-01-29T07:01:34.712Z,87.38
2023-01-29T07:04:03.454Z,88.42
2023-01-29T07:06:31.495Z,90.00
2023-01-29T07:08:58.861Z,89.12
2023-01-29T07:11:26.549Z,88.18
2023-01-29T07:13:53.907Z,88.30
2023-01-29T07:16:21.484Z,87.32
2023-01-29T07:18:49.393Z,90.18
2023-01-29T07:21:17.014Z,89.36
2023-01-29T07:23:44.387Z,89.33
2023-01-29T07:26:12.534Z,87.42
2023-01-29T07:28:41.110Z,88.64
2023-01-29T07:31:11.646Z,88.20
2023-01-29T07:33:39.372Z,87.53
2023-01-29T07:36:11.424Z,87.64
2023-01-29T07:38:39.107Z,86.71
2023-01-29T07:41:06.796Z,85.38
2023-01-29T07:43:34.215Z,87.06
2023-01-29T07:46:04.147Z,85.67
2023-01-29T07:48:31.648Z,87.13
2023-01-29T07:50:59.363Z,86.56
2023-01-29T07:53:28.532Z,88.40
2023-01-29T07:55:56.170Z,88.60
2023-01-29T07:58:23.709Z,86.86
2023-01-29T08:00:51.545Z,85.93
2023-01-29T08:03:21.043Z,87.03
2023-01-29T08:05:48.796Z,86.71
2023-01-29T08:08:16.247Z,85.74
2023-01-29T08:10:43.948Z,86.13
2023-01-29T08:13:12.049Z,85.83
2023-01-29T08:15:39.475Z,84.79
2023-01-29T08:18:07.162Z,84.26
2023-01-29T08:20:35.290Z,86.09
2023-01-29T08:23:06.298Z,84.55
2023-01-29T08:25:35.775Z,84.90
2023-01-29T08:28:03.178Z,85.98
2023-01-29T08:30:32.826Z,84.95
2023-01-29T08:33:03.790Z,85.37
2023-01-29T08:35:31.625Z,86.14
2023-01-29T08:38:01.466Z,84.77
2023-01-29T08:40:34.186Z,85.50
2023-01-29T08:43:04.556Z,86.63
2023-01-29T08:45:35.227Z,86.06
2023-01-29T08:48:02.521Z,85.09
2023-01-29T08:50:34.587Z,87.12
2023-01-29T08:53:04.946Z,85.87
2023-01-29T08:55:32.359Z,87.50
2023-01-29T08:57:59.810Z,85.77
2023-01-29T09:00:27.508Z,85.60
2023-01-29T09:02:54.816Z,84.88
2023-01-29T09:05:23.477Z,84.48
2023-01-29T09:07:53.318Z,84.59
2023-01-29T09:10:21.350Z,85.60
2023-01-29T09:12:48.843Z,85.76
2023-01-29T09:15:16.906Z,85.06
2023-01-29T09:17:44.399Z,85.94
2023-01-29T09:20:12.146Z,85.21
2023-01-29T09:22:39.887Z,84.95
2023-01-29T09:25:07.996Z,85.16
2023-01-29T09:27:35.655Z,84.66
2023-01-29T09:30:04.880Z,85.21
2023-01-29T09:35:24.938Z,84.86
2023-01-29T09:37:52.696Z,84.73
2023-01-29T09:40:43.881Z,85.88
2023-01-29T09:43:20.039Z,85.45
2023-01-29T09:45:57.011Z,86.12
2023-01-29T09:48:31.160Z,84.98
2023-01-29T09:51:03.407Z,85.39
2023-01-29T09:53:46.276Z,85.19
2023-01-29T09:56:20.698Z,84.60
2023-01-29T09:58:48.806Z,85.33
2023-01-29T10:01:28.054Z,84.57
2023-01-29T10:04:12.392Z,86.48
2023-01-29T10:06:51.798Z,85.98
2023-01-29T10:09:40.797Z,86.13
2023-01-29T10:12:26.768Z,85.64
2023-01-29T10:15:33.142Z,85.19
2023-01-29T10:18:27.300Z,83.85
2023-01-29T10:21:32.012Z,85.17
2023-01-29T10:24:17.859Z,85.03
2023-01-29T10:26:45.682Z,84.78
2023-01-29T10:29:19.801Z,86.28
2023-01-29T10:31:52.715Z,84.83
2023-01-29T10:34:56.935Z,85.84
2023-01-29T10:37:44.210Z,83.56
2023-01-29T10:40:20.201Z,82.69
2023-01-29T10:43:29.336Z,83.35
2023-01-29T10:46:25.057Z,84.16
2023-01-29T10:49:00.640Z,83.30
2023-01-29T10:52:04.703Z,83.42
2023-01-29T10:54:35.374Z,84.57
2023-01-29T10:57:02.595Z,82.34
2023-01-29T10:59:49.110Z,82.73
2023-01-29T11:02:21.554Z,83.18
2023-01-29T11:04:49.266Z,83.33
2023-01-29T11:07:19.824Z,84.23
2023-01-29T11:10:08.109Z,83.12
2023-01-29T11:12:38.479Z,84.29
2023-01-29T11:15:30.863Z,84.63
2023-01-29T11:18:03.892Z,85.46
2023-01-29T11:20:34.662Z,85.06
2023-01-29T11:23:02.536Z,85.50
2023-01-29T11:25:32.769Z,86.29
2023-01-29T11:28:02.531Z,86.40
2023-01-29T11:30:39.917Z,85.78
2023-01-29T11:33:10.639Z,86.37
2023-01-29T11:35:38.531Z,87.74
2023-01-29T11:38:18.671Z,85.82
2023-01-29T11:40:46.924Z,87.25
2023-01-29T11:43:20.439Z,86.81
2023-01-29T11:45:55.438Z,86.29
2023-01-29T11:48:27.759Z,86.20
2023-01-29T11:51:05.544Z,86.53
2023-01-29T11:53:45.833Z,85.89
2023-01-29T11:56:22.429Z,85.91
2023-01-29T11:58:51.672Z,87.07
2023-01-29T12:01:30.857Z,86.90
2023-01-29T12:03:59.029Z,85.99
2023-01-29T12:06:41.092Z,86.32
2023-01-29T12:09:16.884Z,86.08
2023-01-29T12:11:44.666Z,86.02
2023-01-29T12:15:02.369Z,86.87
2023-01-29T12:17:35.549Z,86.32
2023-01-29T12:20:22.042Z,86.09
2023-01-29T12:23:01.644Z,85.72
2023-01-29T12:25:47.962Z,84.45
2023-01-29T12:28:31.843Z,84.65
2023-01-29T12:31:17.409Z,84.05
2023-01-29T12:33:59.640Z,84.29
2023-01-29T12:36:34.959Z,85.14
2023-01-29T12:39:02.475Z,83.40
2023-01-29T12:41:40.648Z,82.85
2023-01-29T12:44:21.396Z,82.85
2023-01-29T12:47:01.228Z,87.21
2023-01-29T12:49:32.678Z,84.69
2023-01-29T12:52:07.677Z,86.58
2023-01-29T12:54:42.572Z,85.15
2023-01-29T12:57:45.612Z,87.20
2023-01-29T13:00:15.698Z,86.95
2023-01-29T13:03:05.205Z,86.29
2023-01-29T13:05:49.346Z,87.41
2023-01-29T13:08:38.482Z,86.78
2023-01-29T13:11:16.239Z,86.64
2023-01-29T13:13:54.935Z,87.56
2023-01-29T13:16:28.444Z,86.35
2023-01-29T13:19:35.322Z,85.86
2023-01-29T13:22:11.061Z,85.90
2023-01-29T13:24:47.859Z,85.73
2023-01-29T13:27:24.626Z,86.94
2023-01-29T13:29:53.811Z,87.32
2023-01-29T13:32:34.375Z,86.82
2023-01-29T13:35:06.934Z,85.87
2023-01-29T13:37:47.215Z,86.15
2023-01-29T13:40:34.693Z,87.47
2023-01-29T13:43:04.655Z,87.02
2023-01-29T13:45:43.893Z,86.53
2023-01-29T13:48:24.751Z,86.75
2023-01-29T13:50:56.282Z,86.41
2023-01-29T13:53:28.724Z,84.97
2023-01-29T13:56:29.418Z,85.33
2023-01-29T13:59:00.088Z,86.35
2023-01-29T14:01:49.044Z,87.56
2023-01-29T14:04:28.087Z,86.60
2023-01-29T14:06:57.628Z,86.57
2023-01-29T14:09:32.244Z,86.02
2023-01-29T14:11:59.963Z,85.36
2023-01-29T14:14:49.458Z,85.99
2023-01-29T14:17:18.918Z,87.57
2023-01-29T14:19:51.401Z,86.70
2023-01-29T14:22:24.794Z,85.89
2023-01-29T14:25:00.725Z,84.89
2023-01-29T14:27:29.516Z,85.42
2023-01-29T14:30:07.361Z,86.20
2023-01-29T14:32:34.723Z,85.99
2023-01-29T14:35:20.157Z,85.23
2023-01-29T14:37:51.706Z,86.33
2023-01-29T14:40:20.727Z,86.75
2023-01-29T14:42:55.507Z,87.58
2023-01-29T14:45:26.309Z,86.46
2023-01-29T14:48:03.267Z,86.26
2023-01-29T14:50:32.237Z,88.12
2023-01-29T14:53:06.668Z,88.81
2023-01-29T14:55:48.633Z,88.58
2023-01-29T14:58:27.678Z,87.16
2023-01-29T15:00:57.596Z,87.57
2023-01-29T15:03:34.148Z,87.81
2023-01-29T15:06:05.004Z,88.30
2023-01-29T15:08:54.251Z,88.73
2023-01-29T15:14:05.545Z,88.09
2023-01-29T15:16:53.446Z,89.05
2023-01-29T15:19:35.048Z,89.10
2023-01-29T15:22:09.615Z,88.72
2023-01-29T15:24:38.667Z,87.30
2023-01-29T15:27:08.769Z,87.43
2023-01-29T15:29:38.559Z,89.03
2023-01-29T15:32:07.315Z,89.26
2023-01-29T15:34:35.157Z,87.66
2023-01-29T15:37:02.511Z,88.70
2023-01-29T15:39:31.842Z,88.45
2023-01-29T15:42:13.738Z,86.83
2023-01-29T15:45:00.624Z,87.87
2023-01-29T15:47:32.392Z,88.48
2023-01-29T15:50:00.610Z,87.82
2023-01-29T15:52:33.160Z,86.76
2023-01-29T15:55:06.126Z,85.65
2023-01-29T15:57:40.923Z,86.92
2023-01-29T16:00:23.033Z,86.99
2023-01-29T16:02:51.514Z,87.40
2023-01-29T16:05:23.179Z,86.79
2023-01-29T16:07:52.270Z,86.47
2023-01-29T16:10:31.969Z,87.05
2023-01-29T16:13:00.226Z,87.04
2023-01-29T16:15:32.550Z,86.29
2023-01-29T16:18:01.581Z,85.58
2023-01-29T16:20:44.949Z,85.45
2023-01-29T16:23:43.293Z,86.13
2023-01-29T16:26:18.135Z,85.80
2023-01-29T16:28:47.344Z,85.54
2023-01-29T16:31:26.231Z,84.53
2023-01-29T16:33:54.668Z,84.49
2023-01-29T16:36:25.205Z,84.67
2023-01-29T16:39:00.307Z,84.28
2023-01-29T16:41:33.521Z,84.47
2023-01-29T16:44:16.484Z,84.45
2023-01-29T16:46:49.205Z,84.04
2023-01-29T16:49:26.410Z,83.74
2023-01-29T16:51:56.696Z,84.27
2023-01-29T16:54:28.021Z,84.59
2023-01-29T16:57:03.123Z,84.63
2023-01-29T16:59:41.214Z,82.57
2023-01-29T17:02:31.497Z,82.64
2023-01-29T17:05:11.971Z,83.72
2023-01-29T17:07:48.037Z,83.37
2023-01-29T17:10:20.706Z,83.79
2023-01-29T17:12:58.477Z,83.69
2023-01-29T17:15:34.570Z,83.18
2023-01-29T17:18:04.105Z,83.27
2023-01-29T17:20:32.036Z,83.06
2023-01-29T17:22:59.780Z,82.15
2023-01-29T17:25:29.048Z,81.88
2023-01-29T17:27:57.295Z,81.29
2023-01-29T17:30:30.545Z,81.06
2023-01-29T17:32:58.629Z,82.82
2023-01-29T17:35:25.957Z,82.73
2023-01-29T17:37:53.288Z,81.71
2023-01-29T17:40:41.921Z,82.04
2023-01-29T17:43:11.927Z,82.48
2023-01-29T17:45:41.139Z,82.88
2023-01-29T17:48:18.313Z,83.52
2023-01-29T17:50:49.345Z,83.36
2023-01-29T17:53:18.666Z,82.93
2023-01-29T17:55:47.325Z,83.08
2023-01-29T17:58:19.181Z,82.99
2023-01-29T18:00:48.692Z,83.49
2023-01-29T18:03:16.639Z,83.60
2023-01-29T18:05:45.960Z,83.08
2023-01-29T18:08:21.134Z,82.94
2023-01-29T18:10:49.053Z,83.16
2023-01-29T18:13:16.567Z,83.41
2023-01-29T18:15:44.312Z,83.48
2023-01-29T18:18:19.018Z,83.65
2023-01-29T18:20:46.672Z,83.79
2023-01-29T18:23:14.903Z,83.47
2023-01-29T18:25:43.439Z,83.23
2023-01-29T18:28:18.079Z,83.74
2023-01-29T18:30:47.505Z,84.29
2023-01-29T18:33:16.435Z,84.15
2023-01-29T18:35:45.022Z,84.12
2023-01-29T18:38:12.657Z,84.22
2023-01-29T18:40:41.267Z,84.54
2023-01-29T18:43:09.952Z,84.11
2023-01-29T18:45:37.563Z,83.57
2023-01-29T18:48:05.315Z,83.87
2023-01-29T18:50:33.409Z,83.77
2023-01-29T18:53:02.238Z,83.89
2023-01-29T18:55:30.024Z,84.34
2023-01-29T18:58:33.479Z,82.50
2023-01-29T19:00:46.316Z,82.82
2023-01-29T19:03:14.280Z,83.61
2023-01-29T19:05:41.773Z,83.48
2023-01-29T19:08:10.466Z,83.62
2023-01-29T19:10:37.832Z,83.02
2023-01-29T19:13:06.606Z,82.66
2023-01-29T19:15:34.958Z,82.26
2023-01-29T19:18:02.860Z,83.96
2023-01-29T19:20:30.548Z,83.97
2023-01-29T19:22:58.599Z,84.37
2023-01-29T19:25:26.683Z,84.71
2023-01-29T19:27:54.315Z,84.93
2023-01-29T19:30:22.275Z,85.27
2023-01-29T19:32:50.119Z,84.92
2023-01-29T19:35:18.089Z,85.36
2023-01-29T19:37:46.417Z,86.06
2023-01-29T19:40:14.159Z,86.38
2023-01-29T19:42:41.653Z,85.80
2023-01-29T19:45:10.105Z,86.08
2023-01-29T19:47:41.885Z,84.92
2023-01-29T19:50:11.179Z,86.03
2023-01-29T19:52:50.608Z,86.76
2023-01-29T19:55:21.158Z,86.64
2023-01-29T19:57:48.783Z,85.76
2023-01-29T20:00:17.688Z,86.16
2023-01-29T20:02:45.771Z,85.95
2023-01-29T20:05:17.410Z,85.40
2023-01-29T20:07:45.482Z,85.04
2023-01-29T20:10:17.615Z,84.09
2023-01-29T20:12:46.696Z,85.16
2023-01-29T20:15:15.423Z,85.39
2023-01-29T20:17:43.780Z,84.04
2023-01-29T20:20:11.701Z,84.61
2023-01-29T20:22:39.073Z,85.63
2023-01-29T20:25:07.120Z,86.16
2023-01-29T20:27:35.342Z,85.39
2023-01-29T20:30:02.752Z,85.16
2023-01-29T20:32:31.915Z,85.66
2023-01-29T20:34:59.639Z,86.10
2023-01-29T20:37:27.340Z,87.05
2023-01-29T20:39:54.695Z,84.88
2023-01-29T20:42:22.411Z,85.01
2023-01-29T20:44:49.834Z,84.01
2023-01-29T20:47:17.220Z,85.29
2023-01-29T20:49:45.001Z,84.70
2023-01-29T20:52:12.852Z,84.68
2023-01-29T20:54:40.460Z,84.82
2023-01-29T20:57:08.468Z,84.51
2023-01-29T20:59:35.847Z,84.06
2023-01-29T21:02:03.391Z,83.51
2023-01-29T21:04:31.771Z,83.36
2023-01-29T21:06:59.051Z,85.33
2023-01-29T21:09:26.460Z,85.52
2023-01-29T21:11:54.240Z,84.01
2023-01-29T21:14:21.600Z,84.75
2023-01-29T21:16:48.998Z,85.27
2023-01-29T21:19:16.815Z,84.41
2023-01-29T21:21:44.162Z,86.59
2023-01-29T21:24:13.120Z,84.38
2023-01-29T21:26:41.399Z,85.74
2023-01-29T21:29:11.444Z,86.77
2023-01-29T21:31:39.365Z,86.44
2023-01-29T21:34:07.883Z,84.53
2023-01-29T21:36:37.143Z,85.33
2023-01-29T21:39:16.877Z,84.52
2023-01-29T21:42:03.572Z,84.65
2023-01-29T21:44:33.447Z,84.13
2023-01-29T21:47:01.349Z,84.53
2023-01-29T21:49:28.660Z,85.50
2023-01-29T21:51:56.139Z,84.49
2023-01-29T21:54:23.857Z,84.69
2023-01-29T21:56:51.255Z,86.26
2023-01-29T21:59:18.669Z,83.62
2023-01-29T22:01:46.359Z,84.46
2023-01-29T22:04:15.829Z,84.18
2023-01-29T22:06:43.533Z,84.86
2023-01-29T22:09:10.759Z,83.40
2023-01-29T22:11:40.128Z,84.20
2023-01-29T22:14:07.860Z,84.38
2023-01-29T22:16:35.587Z,84.05
2023-01-29T22:19:03.502Z,82.52
2023-01-29T22:21:30.890Z,82.77
2023-01-29T22:23:58.370Z,82.88
2023-01-29T22:26:26.108Z,81.21
2023-01-29T22:28:53.723Z,82.29
2023-01-29T22:31:21.096Z,81.26
2023-01-29T22:33:48.854Z,82.93
2023-01-29T22:36:16.595Z,81.45
2023-01-29T22:38:44.142Z,81.14
2023-01-29T22:41:12.334Z,81.68
2023-01-29T22:43:41.145Z,80.86
2023-01-29T22:46:09.119Z,81.95
2023-01-29T22:48:37.346Z,80.98
2023-01-29T22:51:11.251Z,81.83
2023-01-29T22:53:41.614Z,82.00
2023-01-29T22:56:10.070Z,81.52
2023-01-29T22:58:37.947Z,82.61
2023-01-29T23:01:05.684Z,81.18
2023-01-29T23:03:33.300Z,81.05
2023-01-29T23:06:00.953Z,79.79
2023-01-29T23:08:28.644Z,80.88
2023-01-29T23:11:14.403Z,80.87
2023-01-29T23:13:52.074Z,80.08
2023-01-29T23:16:21.816Z,80.36
2023-01-29T23:18:51.778Z,81.28
2023-01-29T23:21:20.917Z,80.28
2023-01-29T23:23:48.937Z,80.83
2023-01-29T23:26:35.280Z,81.85
2023-01-29T23:29:04.002Z,80.76
2023-01-29T23:31:32.223Z,80.39
2023-01-29T23:33:59.693Z,81.79
2023-01-29T23:36:27.227Z,82.21
2023-01-29T23:38:54.932Z,81.33
2023-01-29T23:41:22.762Z,81.89
2023-01-29T23:43:50.411Z,81.71
2023-01-29T23:46:18.102Z,80.02
2023-01-29T23:48:45.459Z,80.57
2023-01-29T23:51:12.786Z,83.20
2023-01-29T23:53:40.734Z,83.90
2023-01-29T23:56:08.399Z,82.69
2023-01-29T23:58:35.708Z,83.41
